Thornton, Arkansas
Current Conditions -  °F | °C
As of 12:55 AM on Monday 24 Nov 2014 (Local Time) from KCDH Reporting Station
Clear Clear  
Wind Chill: 57°   Ceiling: Unl
Heat Index: 57°   Visibility: 10mi
Dew Point: 46°   Wind: 12mph
Humidity: 67%   Direction: 70°ENE
Pressure: 29.59"   Gusts: 24mph
Location:  33.78°N, 92.49°W
Report Text: KCDH 240655Z AUTO 07010G21KT 10SM CLR 14/08 A2959 RMK AO2
Loading
Personal Weather Stations






























Interactive Weather Map New forecast layout! Learn more

10-Day Weather Forecast

Advertisements
Track Severe Weather on mobile